TUI6MB LGIR-EDDF
Flight info
| Callsign | TUI6MB |
|---|---|
| Flight time | 2h 58m |
| Altitude | 32000 |
| Route | EPALO UM749 DIRMI UL613 XANIS DCT DIMIS DCT PETAK DCT GLOMY DCT ELTIB DCT TUPUS DCT GORPA DCT SIMBA DCT AKINI T161 DEBHI DEBHI1B |
| Aircraft | B738/M-SDE2E3FGHIRWXY/LB1 |
Departure
| Time | 2026-05-05 17:07 |
|---|---|
| Airport | Heraklion International Nikos Kazantzakis Airport (LGIR) |
Arrival
| Time | 2026-05-05 20:05 |
|---|---|
| Airport | Frankfurt Main Airport (EDDF) |
| Time | Latitude | Longitude | Altitude | Speed | Heading |
|---|---|---|---|---|---|
| 2026-05-05 16:54 | 35.33872 | 25.17428 | 90 ft | 0 kts | 319° |
| 2026-05-05 17:02 | 35.33898 | 25.17412 | 88 ft | 6 kts | 4° |
| 2026-05-05 17:02 | 35.33915 | 25.17453 | 90 ft | 6 kts | 92° |
| 2026-05-05 17:02 | 35.33911 | 25.17512 | 93 ft | 7 kts | 95° |
| 2026-05-05 17:02 | 35.33905 | 25.17601 | 91 ft | 12 kts | 95° |
| 2026-05-05 17:03 | 35.33900 | 25.17702 | 91 ft | 12 kts | 97° |
| 2026-05-05 17:03 | 35.33892 | 25.17802 | 91 ft | 12 kts | 94° |
| 2026-05-05 17:03 | 35.33885 | 25.17898 | 91 ft | 11 kts | 95° |
| 2026-05-05 17:03 | 35.33879 | 25.17992 | 93 ft | 11 kts | 95° |
| 2026-05-05 17:04 | 35.33871 | 25.18096 | 91 ft | 16 kts | 95° |
| 2026-05-05 17:04 | 35.33860 | 25.18249 | 92 ft | 20 kts | 94° |
| 2026-05-05 17:04 | 35.33848 | 25.18431 | 89 ft | 23 kts | 95° |
| 2026-05-05 17:04 | 35.33833 | 25.18636 | 89 ft | 25 kts | 95° |
| 2026-05-05 17:05 | 35.33820 | 25.18832 | 89 ft | 16 kts | 95° |
| 2026-05-05 17:05 | 35.33829 | 25.18949 | 92 ft | 4 kts | 55° |
| 2026-05-05 17:05 | 35.33847 | 25.18980 | 88 ft | 5 kts | 55° |
| 2026-05-05 17:05 | 35.33876 | 25.19023 | 87 ft | 7 kts | 27° |
| 2026-05-05 17:06 | 35.33909 | 25.18982 | 89 ft | 8 kts | 283° |
| 2026-05-05 17:06 | 35.33910 | 25.18961 | 89 ft | 0 kts | 274° |
| 2026-05-05 17:06 | 35.33910 | 25.18959 | 89 ft | 2 kts | 274° |
| 2026-05-05 17:06 | 35.33934 | 25.18620 | 88 ft | 70 kts | 275° |
| 2026-05-05 17:07 | 35.33969 | 25.18121 | 92 ft | 107 kts | 275° |
| 2026-05-05 17:07 | 35.34054 | 25.17007 | 93 ft | 154 kts | 279° |
| 2026-05-05 17:07 | 35.34198 | 25.15680 | 585 ft | 156 kts | 279° |
| 2026-05-05 17:07 | 35.34688 | 25.14021 | 1223 ft | 167 kts | 313° |
| 2026-05-05 17:08 | 35.35738 | 25.13394 | 1784 ft | 174 kts | 347° |
| 2026-05-05 17:08 | 35.36525 | 25.13198 | 2176 ft | 173 kts | 342° |
| 2026-05-05 17:08 | 35.37690 | 25.12840 | 2800 ft | 172 kts | 342° |
| 2026-05-05 17:08 | 35.38847 | 25.12473 | 3459 ft | 172 kts | 344° |
| 2026-05-05 17:09 | 35.40082 | 25.12075 | 3714 ft | 195 kts | 343° |
| 2026-05-05 17:09 | 35.41454 | 25.11624 | 3868 ft | 213 kts | 343° |
| 2026-05-05 17:09 | 35.42939 | 25.11126 | 4064 ft | 227 kts | 343° |
| 2026-05-05 17:09 | 35.44494 | 25.10597 | 4293 ft | 243 kts | 344° |
| 2026-05-05 17:10 | 35.46175 | 25.10019 | 4647 ft | 256 kts | 344° |
| 2026-05-05 17:10 | 35.47892 | 25.09423 | 5396 ft | 255 kts | 344° |
| 2026-05-05 17:10 | 35.49599 | 25.08825 | 6146 ft | 255 kts | 345° |
| 2026-05-05 17:10 | 35.51316 | 25.08221 | 6825 ft | 257 kts | 345° |
| 2026-05-05 17:11 | 35.53013 | 25.07621 | 7466 ft | 259 kts | 345° |
| 2026-05-05 17:11 | 35.54765 | 25.07000 | 8115 ft | 261 kts | 345° |
| 2026-05-05 17:11 | 35.56523 | 25.06377 | 8780 ft | 264 kts | 344° |
| 2026-05-05 17:11 | 35.58296 | 25.05746 | 9442 ft | 266 kts | 344° |
| 2026-05-05 17:12 | 35.60083 | 25.05110 | 10080 ft | 268 kts | 344° |
| 2026-05-05 17:12 | 35.61906 | 25.04460 | 10432 ft | 281 kts | 343° |
| 2026-05-05 17:12 | 35.63830 | 25.03775 | 10578 ft | 300 kts | 343° |
| 2026-05-05 17:12 | 35.65900 | 25.03036 | 10723 ft | 319 kts | 343° |
| 2026-05-05 17:13 | 35.68095 | 25.02253 | 10854 ft | 337 kts | 343° |
| 2026-05-05 17:13 | 35.70395 | 25.01431 | 11090 ft | 350 kts | 343° |
| 2026-05-05 17:13 | 35.72744 | 25.00542 | 11530 ft | 355 kts | 340° |
| 2026-05-05 17:13 | 35.75072 | 24.99487 | 12102 ft | 357 kts | 339° |
| 2026-05-05 17:14 | 35.77401 | 24.98369 | 12678 ft | 360 kts | 338° |
| 2026-05-05 17:14 | 35.79718 | 24.97248 | 13243 ft | 363 kts | 338° |
| 2026-05-05 17:14 | 35.82098 | 24.96104 | 13838 ft | 366 kts | 338° |
| 2026-05-05 17:14 | 35.84460 | 24.94979 | 14359 ft | 368 kts | 338° |
| 2026-05-05 17:15 | 35.86758 | 24.93624 | 15122 ft | 363 kts | 328° |
| 2026-05-05 17:15 | 35.88791 | 24.91792 | 15849 ft | 361 kts | 322° |
| 2026-05-05 17:15 | 35.90717 | 24.89780 | 16394 ft | 365 kts | 314° |
| 2026-05-05 17:15 | 35.92282 | 24.87346 | 16927 ft | 368 kts | 307° |
| 2026-05-05 17:16 | 35.93746 | 24.84726 | 17487 ft | 371 kts | 306° |
| 2026-05-05 17:16 | 35.95184 | 24.82063 | 18032 ft | 373 kts | 305° |
| 2026-05-05 17:16 | 35.96623 | 24.79375 | 18571 ft | 375 kts | 305° |
| 2026-05-05 17:16 | 35.98050 | 24.76698 | 19043 ft | 377 kts | 305° |
| 2026-05-05 17:17 | 35.99492 | 24.73983 | 19543 ft | 378 kts | 305° |
| 2026-05-05 17:17 | 36.00937 | 24.71252 | 20028 ft | 380 kts | 305° |
| 2026-05-05 17:17 | 36.02482 | 24.68599 | 20500 ft | 381 kts | 312° |
| 2026-05-05 17:17 | 36.04298 | 24.66252 | 20965 ft | 382 kts | 318° |
| 2026-05-05 17:18 | 36.06365 | 24.64171 | 21410 ft | 383 kts | 322° |
| 2026-05-05 17:18 | 36.08498 | 24.62170 | 21857 ft | 385 kts | 323° |
| 2026-05-05 17:18 | 36.10625 | 24.60192 | 22287 ft | 387 kts | 323° |
| 2026-05-05 17:18 | 36.12790 | 24.58179 | 22718 ft | 389 kts | 323° |
| 2026-05-05 17:19 | 36.14953 | 24.56161 | 23143 ft | 391 kts | 323° |
| 2026-05-05 17:19 | 36.17130 | 24.54121 | 23564 ft | 393 kts | 323° |
| 2026-05-05 17:19 | 36.19315 | 24.52068 | 23918 ft | 394 kts | 323° |
| 2026-05-05 17:19 | 36.21450 | 24.50055 | 24264 ft | 396 kts | 323° |
| 2026-05-05 17:20 | 36.23627 | 24.48000 | 24625 ft | 396 kts | 323° |
| 2026-05-05 17:20 | 36.25810 | 24.45934 | 24974 ft | 398 kts | 323° |
| 2026-05-05 17:20 | 36.28029 | 24.43834 | 25316 ft | 399 kts | 323° |
| 2026-05-05 17:20 | 36.30220 | 24.41758 | 25653 ft | 400 kts | 323° |
| 2026-05-05 17:21 | 36.32441 | 24.39651 | 25994 ft | 401 kts | 323° |
| 2026-05-05 17:21 | 36.34676 | 24.37530 | 26304 ft | 402 kts | 323° |
| 2026-05-05 17:21 | 36.36903 | 24.35414 | 26630 ft | 403 kts | 323° |
| 2026-05-05 17:22 | 36.41378 | 24.31160 | 27222 ft | 406 kts | 323° |
| 2026-05-05 17:22 | 36.43595 | 24.29050 | 27490 ft | 408 kts | 323° |
| 2026-05-05 17:22 | 36.45870 | 24.26882 | 27769 ft | 409 kts | 323° |
| 2026-05-05 17:22 | 36.48142 | 24.24717 | 28051 ft | 410 kts | 323° |
| 2026-05-05 17:23 | 36.50387 | 24.22575 | 28392 ft | 410 kts | 323° |
| 2026-05-05 17:23 | 36.52644 | 24.20420 | 28851 ft | 407 kts | 323° |
| 2026-05-05 17:23 | 36.54884 | 24.18279 | 29340 ft | 404 kts | 323° |
| 2026-05-05 17:23 | 36.57107 | 24.16153 | 29770 ft | 402 kts | 323° |
| 2026-05-05 17:24 | 36.59291 | 24.14064 | 30168 ft | 400 kts | 323° |
| 2026-05-05 17:24 | 36.61489 | 24.11958 | 30535 ft | 398 kts | 323° |
| 2026-05-05 17:24 | 36.63684 | 24.09855 | 30808 ft | 398 kts | 323° |
| 2026-05-05 17:24 | 36.65882 | 24.07747 | 31039 ft | 398 kts | 323° |
| 2026-05-05 17:25 | 36.68078 | 24.05640 | 31293 ft | 398 kts | 323° |
| 2026-05-05 17:25 | 36.69535 | 24.04241 | 31479 ft | 398 kts | 322° |
| 2026-05-05 17:25 | 36.72441 | 24.01448 | 31840 ft | 397 kts | 322° |
| 2026-05-05 17:25 | 36.74561 | 23.99409 | 32056 ft | 398 kts | 322° |
| 2026-05-05 17:26 | 36.76772 | 23.97281 | 32043 ft | 402 kts | 322° |
| 2026-05-05 17:26 | 36.81203 | 23.93012 | 32046 ft | 400 kts | 322° |
| 2026-05-05 17:27 | 36.85579 | 23.88789 | 32055 ft | 395 kts | 322° |
| 2026-05-05 17:27 | 36.89902 | 23.84610 | 32062 ft | 395 kts | 322° |
| 2026-05-05 17:28 | 36.94261 | 23.80392 | 32053 ft | 395 kts | 322° |
| 2026-05-05 17:28 | 36.97145 | 23.77596 | 32051 ft | 395 kts | 322° |
| 2026-05-05 17:29 | 37.02951 | 23.71962 | 32043 ft | 395 kts | 322° |
| 2026-05-05 17:29 | 37.07264 | 23.67768 | 32049 ft | 395 kts | 322° |
| 2026-05-05 17:30 | 37.11617 | 23.63530 | 32051 ft | 396 kts | 322° |
| 2026-05-05 17:30 | 37.15239 | 23.59999 | 32063 ft | 396 kts | 322° |
| 2026-05-05 17:31 | 37.20299 | 23.55058 | 32048 ft | 397 kts | 322° |
| 2026-05-05 17:31 | 37.24657 | 23.50795 | 32049 ft | 397 kts | 322° |
| 2026-05-05 17:32 | 37.28998 | 23.46544 | 32050 ft | 397 kts | 322° |
| 2026-05-05 17:32 | 37.33360 | 23.42264 | 32043 ft | 397 kts | 322° |
| 2026-05-05 17:33 | 37.37724 | 23.37977 | 32049 ft | 397 kts | 322° |
| 2026-05-05 17:33 | 37.42050 | 23.33720 | 32050 ft | 397 kts | 322° |
| 2026-05-05 17:34 | 37.46399 | 23.29434 | 32052 ft | 396 kts | 322° |
| 2026-05-05 17:34 | 37.50743 | 23.25146 | 32061 ft | 396 kts | 322° |
| 2026-05-05 17:35 | 37.55057 | 23.20882 | 32044 ft | 395 kts | 322° |
| 2026-05-05 17:35 | 37.59377 | 23.16605 | 32061 ft | 394 kts | 322° |
| 2026-05-05 17:36 | 37.63682 | 23.12338 | 32064 ft | 395 kts | 322° |
| 2026-05-05 17:36 | 37.67999 | 23.08051 | 32055 ft | 394 kts | 322° |
| 2026-05-05 17:37 | 37.72294 | 23.03780 | 32064 ft | 394 kts | 322° |
| 2026-05-05 17:37 | 37.76473 | 22.99618 | 32076 ft | 393 kts | 322° |
| 2026-05-05 17:38 | 37.80776 | 22.95325 | 32067 ft | 394 kts | 322° |
| 2026-05-05 17:38 | 37.85088 | 22.91018 | 32063 ft | 394 kts | 322° |
| 2026-05-05 17:39 | 37.89384 | 22.86720 | 32050 ft | 394 kts | 322° |
| 2026-05-05 17:39 | 37.93690 | 22.82405 | 32074 ft | 395 kts | 322° |
| 2026-05-05 17:40 | 37.98005 | 22.78074 | 32068 ft | 395 kts | 322° |
| 2026-05-05 17:40 | 38.02306 | 22.73752 | 32067 ft | 395 kts | 322° |
| 2026-05-05 17:41 | 38.06595 | 22.69433 | 32074 ft | 395 kts | 322° |
| 2026-05-05 17:41 | 38.10895 | 22.65097 | 32073 ft | 394 kts | 322° |
| 2026-05-05 17:42 | 38.15169 | 22.60782 | 32075 ft | 394 kts | 322° |
| 2026-05-05 17:42 | 38.19466 | 22.56436 | 32081 ft | 393 kts | 322° |
| 2026-05-05 17:43 | 38.23726 | 22.52121 | 32077 ft | 393 kts | 322° |
| 2026-05-05 17:43 | 38.28008 | 22.47777 | 32083 ft | 393 kts | 321° |
| 2026-05-05 17:44 | 38.32268 | 22.43449 | 32075 ft | 393 kts | 321° |
| 2026-05-05 17:44 | 38.36535 | 22.39105 | 32083 ft | 392 kts | 321° |
| 2026-05-05 17:45 | 38.40807 | 22.34751 | 32088 ft | 391 kts | 321° |
| 2026-05-05 17:45 | 38.45024 | 22.30447 | 32093 ft | 390 kts | 321° |
| 2026-05-05 17:46 | 38.49262 | 22.26113 | 32089 ft | 389 kts | 321° |
| 2026-05-05 17:46 | 38.53489 | 22.21786 | 32106 ft | 390 kts | 321° |
| 2026-05-05 17:47 | 38.57721 | 22.17445 | 32088 ft | 393 kts | 321° |
| 2026-05-05 17:47 | 38.61995 | 22.13055 | 32102 ft | 393 kts | 321° |
| 2026-05-05 17:48 | 38.66257 | 22.08670 | 32087 ft | 397 kts | 321° |
| 2026-05-05 17:48 | 38.70556 | 22.04239 | 32111 ft | 400 kts | 321° |
| 2026-05-05 17:49 | 38.74822 | 21.99837 | 32095 ft | 402 kts | 321° |
| 2026-05-05 17:49 | 38.79182 | 21.95329 | 32118 ft | 402 kts | 321° |
| 2026-05-05 17:50 | 38.83522 | 21.90836 | 32115 ft | 402 kts | 321° |
| 2026-05-05 17:50 | 38.87878 | 21.86319 | 32113 ft | 402 kts | 321° |
| 2026-05-05 17:51 | 38.92199 | 21.81830 | 32095 ft | 401 kts | 321° |
| 2026-05-05 17:51 | 38.96521 | 21.77334 | 32109 ft | 399 kts | 320° |
| 2026-05-05 17:52 | 39.00827 | 21.72846 | 32117 ft | 399 kts | 320° |
| 2026-05-05 17:52 | 39.05152 | 21.68330 | 32104 ft | 399 kts | 320° |
| 2026-05-05 17:53 | 39.09446 | 21.63845 | 32113 ft | 399 kts | 320° |
| 2026-05-05 17:53 | 39.13754 | 21.59332 | 32104 ft | 397 kts | 320° |
| 2026-05-05 17:54 | 39.17975 | 21.54903 | 32103 ft | 396 kts | 320° |
| 2026-05-05 17:54 | 39.22249 | 21.50413 | 32103 ft | 396 kts | 320° |
| 2026-05-05 17:55 | 39.25804 | 21.46672 | 32089 ft | 395 kts | 320° |
| 2026-05-05 17:55 | 39.30779 | 21.41429 | 32096 ft | 396 kts | 320° |
| 2026-05-05 17:56 | 39.35035 | 21.36936 | 32122 ft | 395 kts | 320° |
| 2026-05-05 17:56 | 39.38575 | 21.33190 | 32123 ft | 393 kts | 320° |
| 2026-05-05 17:57 | 39.42794 | 21.28723 | 32110 ft | 393 kts | 320° |
| 2026-05-05 17:57 | 39.47036 | 21.24226 | 32138 ft | 391 kts | 320° |
| 2026-05-05 17:58 | 39.51229 | 21.19773 | 32099 ft | 391 kts | 320° |
| 2026-05-05 17:58 | 39.55445 | 21.15286 | 32135 ft | 392 kts | 320° |
| 2026-05-05 17:59 | 39.59665 | 21.10789 | 32140 ft | 396 kts | 319° |
| 2026-05-05 17:59 | 39.63935 | 21.06231 | 32127 ft | 399 kts | 319° |
| 2026-05-05 18:00 | 39.68212 | 21.01657 | 32125 ft | 401 kts | 319° |
| 2026-05-05 18:00 | 39.72460 | 20.97107 | 32126 ft | 402 kts | 319° |
| 2026-05-05 18:01 | 39.76775 | 20.92478 | 32136 ft | 402 kts | 319° |
| 2026-05-05 18:01 | 39.81095 | 20.87836 | 32129 ft | 402 kts | 319° |
| 2026-05-05 18:01 | 39.83257 | 20.85509 | 32233 ft | 404 kts | 319° |
| 2026-05-05 18:02 | 39.85399 | 20.83202 | 32458 ft | 404 kts | 319° |
| 2026-05-05 18:02 | 39.87564 | 20.80869 | 32796 ft | 402 kts | 319° |
| 2026-05-05 18:02 | 39.89716 | 20.78547 | 33148 ft | 399 kts | 319° |
| 2026-05-05 18:02 | 39.91854 | 20.76240 | 33527 ft | 396 kts | 319° |
| 2026-05-05 18:03 | 39.93962 | 20.73961 | 33944 ft | 393 kts | 319° |
| 2026-05-05 18:03 | 39.96037 | 20.71718 | 34249 ft | 391 kts | 319° |
| 2026-05-05 18:03 | 39.98136 | 20.69444 | 34400 ft | 393 kts | 319° |
| 2026-05-05 18:03 | 40.00239 | 20.67165 | 34513 ft | 395 kts | 319° |
| 2026-05-05 18:04 | 40.02370 | 20.64855 | 34648 ft | 397 kts | 319° |
| 2026-05-05 18:04 | 40.04471 | 20.62576 | 34859 ft | 396 kts | 319° |
| 2026-05-05 18:04 | 40.06592 | 20.60290 | 35060 ft | 396 kts | 320° |
| 2026-05-05 18:05 | 40.11326 | 20.56468 | 35138 ft | 402 kts | 328° |
| 2026-05-05 18:05 | 40.16243 | 20.52921 | 35131 ft | 401 kts | 328° |
| 2026-05-05 18:06 | 40.21089 | 20.49398 | 35130 ft | 399 kts | 328° |
| 2026-05-05 18:06 | 40.25937 | 20.45846 | 35112 ft | 398 kts | 328° |
| 2026-05-05 18:07 | 40.30736 | 20.42315 | 35120 ft | 397 kts | 328° |
| 2026-05-05 18:07 | 40.35565 | 20.38756 | 35123 ft | 397 kts | 328° |
| 2026-05-05 18:08 | 40.40390 | 20.35193 | 35123 ft | 397 kts | 327° |
| 2026-05-05 18:08 | 40.45220 | 20.31621 | 35112 ft | 399 kts | 327° |
| 2026-05-05 18:09 | 40.50023 | 20.28063 | 35116 ft | 399 kts | 327° |
| 2026-05-05 18:09 | 40.54871 | 20.24466 | 35127 ft | 400 kts | 327° |
| 2026-05-05 18:10 | 40.59730 | 20.20854 | 35131 ft | 401 kts | 327° |
| 2026-05-05 18:10 | 40.64566 | 20.17254 | 35119 ft | 401 kts | 327° |
| 2026-05-05 18:11 | 40.69437 | 20.13622 | 35115 ft | 402 kts | 327° |
| 2026-05-05 18:11 | 40.74305 | 20.09985 | 35108 ft | 403 kts | 327° |
| 2026-05-05 18:12 | 40.79199 | 20.06324 | 35112 ft | 403 kts | 327° |
| 2026-05-05 18:12 | 40.84061 | 20.02679 | 35121 ft | 403 kts | 326° |
| 2026-05-05 18:13 | 40.88852 | 19.99082 | 35115 ft | 403 kts | 326° |
| 2026-05-05 18:13 | 40.93715 | 19.95424 | 35099 ft | 403 kts | 326° |
| 2026-05-05 18:14 | 40.98608 | 19.91739 | 35109 ft | 403 kts | 326° |
| 2026-05-05 18:14 | 41.03444 | 19.88089 | 35110 ft | 402 kts | 326° |
| 2026-05-05 18:15 | 41.08284 | 19.84429 | 35099 ft | 402 kts | 326° |
| 2026-05-05 18:15 | 41.13156 | 19.80740 | 35111 ft | 402 kts | 326° |
| 2026-05-05 18:16 | 41.18022 | 19.77048 | 35108 ft | 403 kts | 326° |
| 2026-05-05 18:16 | 41.22902 | 19.73339 | 35104 ft | 404 kts | 326° |
| 2026-05-05 18:17 | 41.27764 | 19.69638 | 35105 ft | 405 kts | 326° |
| 2026-05-05 18:17 | 41.32664 | 19.65902 | 35107 ft | 406 kts | 326° |
| 2026-05-05 18:18 | 41.37581 | 19.62146 | 35105 ft | 407 kts | 326° |
| 2026-05-05 18:18 | 41.42497 | 19.58384 | 35103 ft | 408 kts | 326° |
| 2026-05-05 18:19 | 41.47400 | 19.54625 | 35100 ft | 408 kts | 326° |
| 2026-05-05 18:19 | 41.52330 | 19.50839 | 35094 ft | 408 kts | 326° |
| 2026-05-05 18:20 | 41.57259 | 19.47047 | 35099 ft | 408 kts | 326° |
| 2026-05-05 18:20 | 41.62162 | 19.43268 | 35092 ft | 409 kts | 326° |
| 2026-05-05 18:21 | 41.67092 | 19.39461 | 35097 ft | 409 kts | 326° |
| 2026-05-05 18:21 | 41.72031 | 19.35640 | 35094 ft | 409 kts | 326° |
| 2026-05-05 18:22 | 41.76944 | 19.31834 | 35093 ft | 410 kts | 326° |
| 2026-05-05 18:22 | 41.81757 | 19.27720 | 35090 ft | 410 kts | 323° |
| 2026-05-05 18:23 | 41.86460 | 19.23462 | 35088 ft | 410 kts | 322° |
| 2026-05-05 18:23 | 41.91210 | 19.19159 | 35086 ft | 412 kts | 323° |
| 2026-05-05 18:24 | 41.95981 | 19.14857 | 35092 ft | 413 kts | 323° |
| 2026-05-05 18:24 | 42.00746 | 19.10566 | 35075 ft | 414 kts | 323° |
| 2026-05-05 18:25 | 42.05515 | 19.06268 | 35083 ft | 415 kts | 323° |
| 2026-05-05 18:25 | 42.10313 | 19.01937 | 35083 ft | 415 kts | 323° |
| 2026-05-05 18:26 | 42.15043 | 18.97658 | 35082 ft | 416 kts | 323° |
| 2026-05-05 18:26 | 42.19826 | 18.93323 | 35080 ft | 416 kts | 323° |
| 2026-05-05 18:27 | 42.24641 | 18.88951 | 35083 ft | 417 kts | 323° |
| 2026-05-05 18:27 | 42.29458 | 18.84569 | 35086 ft | 417 kts | 323° |
| 2026-05-05 18:28 | 42.36657 | 18.78006 | 35088 ft | 417 kts | 323° |
| 2026-05-05 18:28 | 42.41444 | 18.73630 | 35079 ft | 417 kts | 322° |
| 2026-05-05 18:29 | 42.46259 | 18.69221 | 35076 ft | 417 kts | 322° |
| 2026-05-05 18:29 | 42.51072 | 18.64807 | 35063 ft | 416 kts | 322° |
| 2026-05-05 18:30 | 42.55869 | 18.60397 | 35072 ft | 415 kts | 322° |
| 2026-05-05 18:30 | 42.60625 | 18.56017 | 35068 ft | 415 kts | 322° |
| 2026-05-05 18:31 | 42.65411 | 18.51601 | 35078 ft | 416 kts | 322° |
| 2026-05-05 18:31 | 42.70207 | 18.47167 | 35079 ft | 417 kts | 322° |
| 2026-05-05 18:32 | 42.74997 | 18.42732 | 35087 ft | 418 kts | 322° |
| 2026-05-05 18:32 | 42.79825 | 18.38252 | 35074 ft | 419 kts | 322° |
| 2026-05-05 18:33 | 42.84655 | 18.33761 | 35076 ft | 420 kts | 322° |
| 2026-05-05 18:33 | 42.89468 | 18.29278 | 35090 ft | 421 kts | 322° |
| 2026-05-05 18:34 | 42.94319 | 18.24750 | 35081 ft | 422 kts | 322° |
| 2026-05-05 18:34 | 42.99178 | 18.20207 | 35096 ft | 423 kts | 322° |
| 2026-05-05 18:35 | 43.04023 | 18.15668 | 35087 ft | 424 kts | 322° |
| 2026-05-05 18:35 | 43.08854 | 18.11133 | 35086 ft | 424 kts | 322° |
| 2026-05-05 18:36 | 43.13725 | 18.06552 | 35081 ft | 423 kts | 322° |
| 2026-05-05 18:36 | 43.18575 | 18.01981 | 35087 ft | 423 kts | 322° |
| 2026-05-05 18:37 | 43.23331 | 17.97490 | 35077 ft | 422 kts | 322° |
| 2026-05-05 18:37 | 43.28178 | 17.92904 | 35078 ft | 422 kts | 322° |
| 2026-05-05 18:38 | 43.33010 | 17.88323 | 35077 ft | 421 kts | 322° |
| 2026-05-05 18:38 | 43.37840 | 17.83735 | 35080 ft | 421 kts | 322° |
| 2026-05-05 18:39 | 43.42624 | 17.79181 | 35094 ft | 421 kts | 322° |
| 2026-05-05 18:39 | 43.47449 | 17.74580 | 35085 ft | 420 kts | 322° |
| 2026-05-05 18:40 | 43.52228 | 17.70013 | 35059 ft | 420 kts | 322° |
| 2026-05-05 18:40 | 43.56998 | 17.65371 | 35091 ft | 419 kts | 319° |
| 2026-05-05 18:41 | 43.61548 | 17.60328 | 35085 ft | 418 kts | 317° |
| 2026-05-05 18:41 | 43.66043 | 17.55184 | 35089 ft | 420 kts | 317° |
| 2026-05-05 18:42 | 43.70538 | 17.50068 | 35097 ft | 421 kts | 317° |
| 2026-05-05 18:42 | 43.75065 | 17.44943 | 35097 ft | 422 kts | 317° |
| 2026-05-05 18:43 | 43.79628 | 17.39779 | 35097 ft | 423 kts | 317° |
| 2026-05-05 18:43 | 43.84204 | 17.34591 | 35080 ft | 425 kts | 317° |
| 2026-05-05 18:44 | 43.88760 | 17.29415 | 35077 ft | 425 kts | 317° |
| 2026-05-05 18:44 | 43.93338 | 17.24203 | 35082 ft | 425 kts | 317° |
| 2026-05-05 18:45 | 43.97882 | 17.19019 | 35078 ft | 425 kts | 317° |
| 2026-05-05 18:45 | 44.02449 | 17.13798 | 35076 ft | 425 kts | 317° |
| 2026-05-05 18:46 | 44.06248 | 17.09447 | 35074 ft | 424 kts | 317° |
| 2026-05-05 18:46 | 44.10809 | 17.04212 | 35083 ft | 424 kts | 317° |
| 2026-05-05 18:47 | 44.15273 | 16.99078 | 35076 ft | 425 kts | 317° |
| 2026-05-05 18:47 | 44.19838 | 16.93817 | 35068 ft | 425 kts | 317° |
| 2026-05-05 18:48 | 44.24378 | 16.88573 | 35060 ft | 425 kts | 317° |
| 2026-05-05 18:48 | 44.28937 | 16.83299 | 35052 ft | 425 kts | 317° |
| 2026-05-05 18:49 | 44.33595 | 16.78262 | 35075 ft | 426 kts | 321° |
| 2026-05-05 18:49 | 44.38467 | 16.73486 | 35052 ft | 428 kts | 321° |
| 2026-05-05 18:50 | 44.43365 | 16.68700 | 35051 ft | 428 kts | 321° |
| 2026-05-05 18:50 | 44.48200 | 16.63916 | 35033 ft | 428 kts | 321° |
| 2026-05-05 18:51 | 44.53068 | 16.59061 | 35049 ft | 429 kts | 321° |
| 2026-05-05 18:51 | 44.57932 | 16.54192 | 35031 ft | 429 kts | 321° |
| 2026-05-05 18:52 | 44.62786 | 16.49322 | 35031 ft | 431 kts | 321° |
| 2026-05-05 18:52 | 44.67659 | 16.44425 | 35029 ft | 431 kts | 321° |
| 2026-05-05 18:53 | 44.72519 | 16.39532 | 35025 ft | 431 kts | 321° |
| 2026-05-05 18:53 | 44.77406 | 16.34601 | 35024 ft | 432 kts | 321° |
| 2026-05-05 18:54 | 44.82300 | 16.29650 | 35019 ft | 433 kts | 321° |
| 2026-05-05 18:54 | 44.87195 | 16.24690 | 35012 ft | 433 kts | 321° |
| 2026-05-05 18:55 | 44.92072 | 16.19737 | 35022 ft | 434 kts | 320° |
| 2026-05-05 18:55 | 44.96969 | 16.14753 | 35008 ft | 434 kts | 320° |
| 2026-05-05 18:56 | 45.01855 | 16.09769 | 35004 ft | 434 kts | 320° |
| 2026-05-05 18:56 | 45.06742 | 16.04773 | 35014 ft | 435 kts | 320° |
| 2026-05-05 18:57 | 45.11581 | 15.99815 | 35006 ft | 435 kts | 320° |
| 2026-05-05 18:57 | 45.16465 | 15.94801 | 35002 ft | 436 kts | 320° |
| 2026-05-05 18:58 | 45.21387 | 15.89738 | 34988 ft | 436 kts | 320° |
| 2026-05-05 18:58 | 45.26344 | 15.84813 | 35000 ft | 437 kts | 322° |
| 2026-05-05 18:59 | 45.31399 | 15.79995 | 34994 ft | 437 kts | 322° |
| 2026-05-05 18:59 | 45.36456 | 15.75154 | 34984 ft | 438 kts | 322° |
| 2026-05-05 19:00 | 45.41502 | 15.70280 | 34979 ft | 438 kts | 322° |
| 2026-05-05 19:00 | 45.46547 | 15.65384 | 34987 ft | 438 kts | 322° |
| 2026-05-05 19:01 | 45.51559 | 15.60509 | 34993 ft | 439 kts | 322° |
| 2026-05-05 19:01 | 45.56619 | 15.55576 | 34987 ft | 439 kts | 322° |
| 2026-05-05 19:02 | 45.61674 | 15.50638 | 34981 ft | 440 kts | 322° |
| 2026-05-05 19:02 | 45.66702 | 15.45715 | 34982 ft | 440 kts | 322° |
| 2026-05-05 19:03 | 45.71754 | 15.40757 | 34969 ft | 440 kts | 322° |
| 2026-05-05 19:03 | 45.76784 | 15.35811 | 34967 ft | 440 kts | 322° |
| 2026-05-05 19:04 | 45.81920 | 15.30990 | 34979 ft | 441 kts | 324° |
| 2026-05-05 19:04 | 45.87142 | 15.26342 | 34972 ft | 441 kts | 324° |
| 2026-05-05 19:05 | 45.92334 | 15.21707 | 34970 ft | 441 kts | 324° |
| 2026-05-05 19:05 | 45.97554 | 15.16997 | 34982 ft | 441 kts | 324° |
| 2026-05-05 19:06 | 46.02701 | 15.12322 | 34980 ft | 442 kts | 324° |
| 2026-05-05 19:06 | 46.07905 | 15.07578 | 34985 ft | 442 kts | 324° |
| 2026-05-05 19:07 | 46.13110 | 15.02825 | 34978 ft | 443 kts | 324° |
| 2026-05-05 19:07 | 46.18249 | 14.98121 | 34975 ft | 443 kts | 324° |
| 2026-05-05 19:08 | 46.23427 | 14.93372 | 34980 ft | 444 kts | 324° |
| 2026-05-05 19:08 | 46.28657 | 14.88564 | 34978 ft | 444 kts | 323° |
| 2026-05-05 19:09 | 46.33839 | 14.83788 | 34966 ft | 444 kts | 323° |
| 2026-05-05 19:09 | 46.39048 | 14.78978 | 34968 ft | 444 kts | 323° |
| 2026-05-05 19:10 | 46.44263 | 14.74154 | 34963 ft | 443 kts | 324° |
| 2026-05-05 19:10 | 46.49469 | 14.69324 | 34961 ft | 443 kts | 324° |
| 2026-05-05 19:11 | 46.54641 | 14.64513 | 34953 ft | 444 kts | 323° |
| 2026-05-05 19:11 | 46.59851 | 14.59655 | 34944 ft | 444 kts | 323° |
| 2026-05-05 19:12 | 46.65062 | 14.54787 | 34939 ft | 445 kts | 323° |
| 2026-05-05 19:12 | 46.70242 | 14.49936 | 34944 ft | 446 kts | 323° |
| 2026-05-05 19:13 | 46.75466 | 14.45033 | 34941 ft | 446 kts | 323° |
| 2026-05-05 19:13 | 46.80698 | 14.40111 | 34935 ft | 446 kts | 323° |
| 2026-05-05 19:14 | 46.85892 | 14.35214 | 34930 ft | 447 kts | 323° |
| 2026-05-05 19:14 | 46.91115 | 14.30277 | 34932 ft | 446 kts | 323° |
| 2026-05-05 19:15 | 46.96314 | 14.25351 | 34915 ft | 447 kts | 323° |
| 2026-05-05 19:15 | 47.01546 | 14.20383 | 34919 ft | 448 kts | 323° |
| 2026-05-05 19:16 | 47.06752 | 14.15427 | 34900 ft | 448 kts | 323° |
| 2026-05-05 19:16 | 47.11979 | 14.10440 | 34916 ft | 448 kts | 323° |
| 2026-05-05 19:17 | 47.17209 | 14.05437 | 34905 ft | 448 kts | 323° |
| 2026-05-05 19:17 | 47.22400 | 14.00460 | 34897 ft | 448 kts | 323° |
| 2026-05-05 19:18 | 47.27545 | 13.95515 | 34883 ft | 448 kts | 323° |
| 2026-05-05 19:18 | 47.32742 | 13.90510 | 34875 ft | 447 kts | 323° |
| 2026-05-05 19:19 | 47.37954 | 13.85477 | 34870 ft | 447 kts | 323° |
| 2026-05-05 19:19 | 47.43166 | 13.80433 | 34864 ft | 447 kts | 323° |
| 2026-05-05 19:20 | 47.48345 | 13.75406 | 34849 ft | 447 kts | 322° |
| 2026-05-05 19:20 | 47.53532 | 13.70362 | 34828 ft | 448 kts | 322° |
| 2026-05-05 19:21 | 47.58712 | 13.65313 | 34822 ft | 447 kts | 322° |
| 2026-05-05 19:21 | 47.63916 | 13.60226 | 34830 ft | 448 kts | 322° |
| 2026-05-05 19:22 | 47.69109 | 13.55140 | 34854 ft | 449 kts | 322° |
| 2026-05-05 19:22 | 47.74337 | 13.50003 | 34837 ft | 451 kts | 322° |
| 2026-05-05 19:23 | 47.79565 | 13.44857 | 34830 ft | 452 kts | 322° |
| 2026-05-05 19:23 | 47.84805 | 13.39686 | 34836 ft | 454 kts | 322° |
| 2026-05-05 19:24 | 47.90087 | 13.34461 | 34829 ft | 456 kts | 322° |
| 2026-05-05 19:24 | 47.95388 | 13.29203 | 34828 ft | 457 kts | 322° |
| 2026-05-05 19:25 | 48.00652 | 13.23969 | 34828 ft | 458 kts | 321° |
| 2026-05-05 19:25 | 48.05967 | 13.18671 | 34826 ft | 459 kts | 321° |
| 2026-05-05 19:26 | 48.11288 | 13.13354 | 34819 ft | 459 kts | 321° |
| 2026-05-05 19:26 | 48.16612 | 13.08021 | 34814 ft | 459 kts | 321° |
| 2026-05-05 19:27 | 48.21882 | 13.02699 | 34813 ft | 458 kts | 319° |
| 2026-05-05 19:27 | 48.26335 | 12.96272 | 34829 ft | 448 kts | 306° |
| 2026-05-05 19:28 | 48.30404 | 12.89233 | 34824 ft | 449 kts | 305° |
| 2026-05-05 19:28 | 48.34507 | 12.82150 | 34819 ft | 449 kts | 306° |
| 2026-05-05 19:29 | 48.38646 | 12.75074 | 34816 ft | 450 kts | 306° |
| 2026-05-05 19:29 | 48.42772 | 12.68037 | 34816 ft | 450 kts | 306° |
| 2026-05-05 19:30 | 48.46916 | 12.60953 | 34818 ft | 451 kts | 306° |
| 2026-05-05 19:30 | 48.51065 | 12.53838 | 34817 ft | 451 kts | 306° |
| 2026-05-05 19:31 | 48.55135 | 12.46838 | 34816 ft | 451 kts | 306° |
| 2026-05-05 19:31 | 48.59315 | 12.39630 | 34817 ft | 451 kts | 306° |
| 2026-05-05 19:32 | 48.63452 | 12.32476 | 34817 ft | 451 kts | 306° |
| 2026-05-05 19:32 | 48.67579 | 12.25320 | 34853 ft | 451 kts | 305° |
| 2026-05-05 19:33 | 48.71087 | 12.17551 | 34822 ft | 444 kts | 295° |
| 2026-05-05 19:33 | 48.74154 | 12.09498 | 34834 ft | 444 kts | 294° |
| 2026-05-05 19:34 | 48.76749 | 12.02698 | 34820 ft | 445 kts | 295° |
| 2026-05-05 19:35 | 48.81395 | 11.90723 | 34815 ft | 446 kts | 295° |
| 2026-05-05 19:35 | 48.84553 | 11.82616 | 34820 ft | 447 kts | 295° |
| 2026-05-05 19:36 | 48.87717 | 11.74471 | 34817 ft | 447 kts | 295° |
| 2026-05-05 19:36 | 48.90877 | 11.66310 | 34814 ft | 448 kts | 295° |
| 2026-05-05 19:37 | 48.94015 | 11.58180 | 34825 ft | 448 kts | 295° |
| 2026-05-05 19:37 | 48.97160 | 11.50002 | 34817 ft | 449 kts | 295° |
| 2026-05-05 19:38 | 49.00299 | 11.41816 | 34832 ft | 450 kts | 296° |
| 2026-05-05 19:38 | 49.03451 | 11.33570 | 34830 ft | 452 kts | 296° |
| 2026-05-05 19:39 | 49.06588 | 11.25347 | 34272 ft | 443 kts | 295° |
| 2026-05-05 19:39 | 49.08117 | 11.21326 | 33559 ft | 447 kts | 295° |
| 2026-05-05 19:39 | 49.09688 | 11.17178 | 32545 ft | 455 kts | 296° |
| 2026-05-05 19:39 | 49.11286 | 11.12949 | 31467 ft | 466 kts | 296° |
| 2026-05-05 19:40 | 49.12923 | 11.08613 | 30442 ft | 475 kts | 296° |
| 2026-05-05 19:40 | 49.14593 | 11.04191 | 29411 ft | 481 kts | 296° |
| 2026-05-05 19:40 | 49.16238 | 10.99834 | 28499 ft | 483 kts | 297° |
| 2026-05-05 19:40 | 49.17900 | 10.95426 | 27642 ft | 483 kts | 297° |
| 2026-05-05 19:41 | 49.19554 | 10.91035 | 26801 ft | 482 kts | 297° |
| 2026-05-05 19:41 | 49.21223 | 10.86589 | 25903 ft | 482 kts | 297° |
| 2026-05-05 19:41 | 49.22894 | 10.82132 | 25061 ft | 481 kts | 297° |
| 2026-05-05 19:41 | 49.24549 | 10.77706 | 24454 ft | 474 kts | 297° |
| 2026-05-05 19:42 | 49.26179 | 10.73343 | 23860 ft | 469 kts | 297° |
| 2026-05-05 19:42 | 49.27772 | 10.69073 | 23675 ft | 454 kts | 297° |
| 2026-05-05 19:42 | 49.29318 | 10.64919 | 23423 ft | 442 kts | 297° |
| 2026-05-05 19:42 | 49.30824 | 10.60865 | 23134 ft | 431 kts | 297° |
| 2026-05-05 19:43 | 49.32268 | 10.56972 | 22859 ft | 420 kts | 297° |
| 2026-05-05 19:43 | 49.33701 | 10.53101 | 22576 ft | 411 kts | 297° |
| 2026-05-05 19:43 | 49.35099 | 10.49322 | 22295 ft | 402 kts | 297° |
| 2026-05-05 19:43 | 49.36499 | 10.45638 | 22019 ft | 395 kts | 300° |
| 2026-05-05 19:44 | 49.37987 | 10.42203 | 21758 ft | 387 kts | 302° |
| 2026-05-05 19:44 | 49.39535 | 10.38832 | 21493 ft | 381 kts | 303° |
| 2026-05-05 19:44 | 49.41058 | 10.35569 | 21168 ft | 376 kts | 303° |
| 2026-05-05 19:44 | 49.42576 | 10.32312 | 20789 ft | 372 kts | 303° |
| 2026-05-05 19:45 | 49.44076 | 10.29070 | 20421 ft | 370 kts | 303° |
| 2026-05-05 19:45 | 49.45555 | 10.25850 | 20038 ft | 367 kts | 302° |
| 2026-05-05 19:45 | 49.47014 | 10.22656 | 19673 ft | 364 kts | 302° |
| 2026-05-05 19:45 | 49.48463 | 10.19472 | 19299 ft | 362 kts | 302° |
| 2026-05-05 19:46 | 49.49896 | 10.16312 | 18935 ft | 359 kts | 302° |
| 2026-05-05 19:46 | 49.51308 | 10.13194 | 18575 ft | 357 kts | 302° |
| 2026-05-05 19:46 | 49.52726 | 10.10057 | 18195 ft | 355 kts | 302° |
| 2026-05-05 19:46 | 49.54135 | 10.06935 | 17808 ft | 354 kts | 302° |
| 2026-05-05 19:47 | 49.55540 | 10.03819 | 17412 ft | 351 kts | 302° |
| 2026-05-05 19:47 | 49.56927 | 10.00741 | 17035 ft | 349 kts | 302° |
| 2026-05-05 19:47 | 49.58248 | 9.97808 | 16684 ft | 346 kts | 302° |
| 2026-05-05 19:47 | 49.59615 | 9.94774 | 16321 ft | 343 kts | 302° |
| 2026-05-05 19:48 | 49.60972 | 9.91763 | 15978 ft | 340 kts | 302° |
| 2026-05-05 19:48 | 49.62298 | 9.88812 | 15626 ft | 338 kts | 302° |
| 2026-05-05 19:48 | 49.63635 | 9.85835 | 15275 ft | 336 kts | 302° |
| 2026-05-05 19:48 | 49.64958 | 9.82883 | 14925 ft | 333 kts | 302° |
| 2026-05-05 19:49 | 49.66274 | 9.79942 | 14584 ft | 331 kts | 302° |
| 2026-05-05 19:49 | 49.67562 | 9.77065 | 14231 ft | 325 kts | 302° |
| 2026-05-05 19:49 | 49.68834 | 9.74223 | 13894 ft | 318 kts | 303° |
| 2026-05-05 19:49 | 49.70306 | 9.71715 | 13543 ft | 315 kts | 315° |
| 2026-05-05 19:50 | 49.71998 | 9.69539 | 13200 ft | 314 kts | 318° |
| 2026-05-05 19:50 | 49.73703 | 9.67448 | 12867 ft | 312 kts | 318° |
| 2026-05-05 19:50 | 49.75409 | 9.65377 | 12654 ft | 307 kts | 319° |
| 2026-05-05 19:50 | 49.77065 | 9.63381 | 12521 ft | 299 kts | 319° |
| 2026-05-05 19:51 | 49.78698 | 9.61422 | 12226 ft | 297 kts | 319° |
| 2026-05-05 19:51 | 49.80331 | 9.59467 | 11910 ft | 296 kts | 319° |
| 2026-05-05 19:51 | 49.81940 | 9.57543 | 11643 ft | 294 kts | 319° |
| 2026-05-05 19:51 | 49.83563 | 9.55608 | 11330 ft | 292 kts | 319° |
| 2026-05-05 19:52 | 49.85169 | 9.53695 | 11166 ft | 286 kts | 319° |
| 2026-05-05 19:52 | 49.86718 | 9.51853 | 11089 ft | 275 kts | 319° |
| 2026-05-05 19:52 | 49.88186 | 9.50116 | 10995 ft | 263 kts | 319° |
| 2026-05-05 19:52 | 49.89631 | 9.48414 | 10796 ft | 258 kts | 319° |
| 2026-05-05 19:53 | 49.91058 | 9.46736 | 10561 ft | 256 kts | 319° |
| 2026-05-05 19:53 | 49.92460 | 9.45088 | 10337 ft | 255 kts | 319° |
| 2026-05-05 19:53 | 49.93874 | 9.43427 | 10065 ft | 254 kts | 319° |
| 2026-05-05 19:53 | 49.95284 | 9.41772 | 9879 ft | 253 kts | 319° |
| 2026-05-05 19:54 | 49.96699 | 9.40109 | 9854 ft | 256 kts | 319° |
| 2026-05-05 19:54 | 49.98114 | 9.38442 | 9819 ft | 254 kts | 319° |
| 2026-05-05 19:54 | 49.99497 | 9.36816 | 9819 ft | 252 kts | 319° |
| 2026-05-05 19:54 | 50.00891 | 9.35176 | 9817 ft | 253 kts | 319° |
| 2026-05-05 19:55 | 50.02291 | 9.33530 | 9729 ft | 251 kts | 319° |
| 2026-05-05 19:55 | 50.03683 | 9.31895 | 9504 ft | 248 kts | 319° |
| 2026-05-05 19:55 | 50.05063 | 9.30271 | 9091 ft | 249 kts | 319° |
| 2026-05-05 19:55 | 50.06448 | 9.28633 | 8699 ft | 249 kts | 319° |
| 2026-05-05 19:56 | 50.07821 | 9.27002 | 8390 ft | 247 kts | 319° |
| 2026-05-05 19:56 | 50.09168 | 9.25397 | 8062 ft | 246 kts | 319° |
| 2026-05-05 19:56 | 50.10530 | 9.23770 | 7837 ft | 246 kts | 319° |
| 2026-05-05 19:56 | 50.11822 | 9.22049 | 7792 ft | 241 kts | 306° |
| 2026-05-05 19:57 | 50.12629 | 9.19823 | 7550 ft | 233 kts | 287° |
| 2026-05-05 19:57 | 50.12971 | 9.18237 | 7307 ft | 233 kts | 284° |
| 2026-05-05 19:57 | 50.13596 | 9.15024 | 6816 ft | 233 kts | 284° |
| 2026-05-05 19:57 | 50.14056 | 9.12604 | 6486 ft | 232 kts | 284° |
| 2026-05-05 19:58 | 50.14508 | 9.10191 | 6147 ft | 231 kts | 284° |
| 2026-05-05 19:58 | 50.14952 | 9.07784 | 5796 ft | 230 kts | 282° |
| 2026-05-05 19:58 | 50.14997 | 9.05379 | 5541 ft | 221 kts | 256° |
| 2026-05-05 19:58 | 50.14606 | 9.03091 | 5248 ft | 219 kts | 253° |
| 2026-05-05 19:59 | 50.14145 | 9.00826 | 4939 ft | 218 kts | 250° |
| 2026-05-05 19:59 | 50.13663 | 8.98707 | 4769 ft | 216 kts | 249° |
| 2026-05-05 19:59 | 50.13161 | 8.96597 | 4614 ft | 204 kts | 249° |
| 2026-05-05 19:59 | 50.12678 | 8.94599 | 4467 ft | 190 kts | 249° |
| 2026-05-05 20:00 | 50.12226 | 8.92738 | 4382 ft | 180 kts | 249° |
| 2026-05-05 20:00 | 50.11781 | 8.90905 | 4307 ft | 181 kts | 249° |
| 2026-05-05 20:00 | 50.11334 | 8.89061 | 4221 ft | 182 kts | 249° |
| 2026-05-05 20:00 | 50.10895 | 8.87249 | 4203 ft | 180 kts | 249° |
| 2026-05-05 20:01 | 50.10442 | 8.85383 | 3938 ft | 186 kts | 249° |
| 2026-05-05 20:01 | 50.09993 | 8.83524 | 3721 ft | 183 kts | 249° |
| 2026-05-05 20:01 | 50.09546 | 8.81676 | 3490 ft | 181 kts | 249° |
| 2026-05-05 20:01 | 50.09108 | 8.79862 | 3253 ft | 179 kts | 249° |
| 2026-05-05 20:02 | 50.08669 | 8.78045 | 3008 ft | 178 kts | 249° |
| 2026-05-05 20:02 | 50.08234 | 8.76244 | 2773 ft | 175 kts | 249° |
| 2026-05-05 20:02 | 50.07823 | 8.74538 | 2528 ft | 164 kts | 249° |
| 2026-05-05 20:02 | 50.07436 | 8.72933 | 2327 ft | 155 kts | 249° |
| 2026-05-05 20:03 | 50.07059 | 8.71368 | 2133 ft | 155 kts | 249° |
| 2026-05-05 20:03 | 50.06680 | 8.69792 | 1923 ft | 156 kts | 249° |
| 2026-05-05 20:03 | 50.06298 | 8.68207 | 1725 ft | 157 kts | 249° |
| 2026-05-05 20:03 | 50.05910 | 8.66605 | 1459 ft | 159 kts | 248° |
| 2026-05-05 20:04 | 50.05515 | 8.64987 | 1221 ft | 159 kts | 249° |
| 2026-05-05 20:04 | 50.05130 | 8.63392 | 1032 ft | 154 kts | 248° |
| 2026-05-05 20:04 | 50.04791 | 8.61953 | 977 ft | 134 kts | 250° |
| 2026-05-05 20:04 | 50.04464 | 8.60589 | 694 ft | 140 kts | 249° |
| 2026-05-05 20:05 | 50.04131 | 8.59195 | 481 ft | 136 kts | 249° |
| 2026-05-05 20:05 | 50.03807 | 8.57833 | 366 ft | 122 kts | 249° |
| 2026-05-05 20:05 | 50.03584 | 8.56889 | 357 ft | 64 kts | 250° |
| 2026-05-05 20:05 | 50.03458 | 8.56362 | 357 ft | 49 kts | 250° |
| 2026-05-05 20:06 | 50.03449 | 8.55947 | 354 ft | 34 kts | 279° |
| 2026-05-05 20:06 | 50.03466 | 8.55793 | 349 ft | 3 kts | 279° |
| 2026-05-05 20:06 | 50.03466 | 8.55786 | 347 ft | 0 kts | 279° |
| 2026-05-05 20:08 | 50.03470 | 8.55760 | 343 ft | 4 kts | 281° |
| 2026-05-05 20:08 | 50.03483 | 8.55719 | 348 ft | 5 kts | 313° |
| 2026-05-05 20:08 | 50.03532 | 8.55707 | 353 ft | 9 kts | 20° |
| 2026-05-05 20:09 | 50.03565 | 8.55782 | 354 ft | 9 kts | 68° |
| 2026-05-05 20:09 | 50.03587 | 8.55868 | 351 ft | 11 kts | 69° |
| 2026-05-05 20:09 | 50.03627 | 8.56035 | 351 ft | 19 kts | 70° |
| 2026-05-05 20:09 | 50.03676 | 8.56240 | 357 ft | 22 kts | 69° |
| 2026-05-05 20:10 | 50.03734 | 8.56482 | 351 ft | 26 kts | 69° |
| 2026-05-05 20:10 | 50.03800 | 8.56758 | 355 ft | 29 kts | 70° |
| 2026-05-05 20:10 | 50.03870 | 8.57055 | 361 ft | 29 kts | 70° |
| 2026-05-05 20:10 | 50.03937 | 8.57340 | 362 ft | 27 kts | 69° |
| 2026-05-05 20:11 | 50.04002 | 8.57608 | 367 ft | 26 kts | 70° |
| 2026-05-05 20:11 | 50.04061 | 8.57855 | 367 ft | 24 kts | 70° |
| 2026-05-05 20:11 | 50.04117 | 8.58091 | 368 ft | 23 kts | 69° |
| 2026-05-05 20:11 | 50.04172 | 8.58316 | 369 ft | 22 kts | 69° |
| 2026-05-05 20:12 | 50.04225 | 8.58536 | 372 ft | 21 kts | 70° |
| 2026-05-05 20:12 | 50.04275 | 8.58748 | 370 ft | 21 kts | 69° |
| 2026-05-05 20:12 | 50.04325 | 8.58954 | 374 ft | 20 kts | 69° |
| 2026-05-05 20:12 | 50.04372 | 8.59150 | 376 ft | 19 kts | 69° |
| 2026-05-05 20:13 | 50.04419 | 8.59342 | 374 ft | 18 kts | 69° |
| 2026-05-05 20:13 | 50.04450 | 8.59449 | 374 ft | 8 kts | 46° |
| 2026-05-05 20:13 | 50.04499 | 8.59470 | 374 ft | 7 kts | 359° |
| 2026-05-05 20:13 | 50.04549 | 8.59468 | 373 ft | 7 kts | 358° |
| 2026-05-05 20:14 | 50.04597 | 8.59466 | 372 ft | 7 kts | 358° |
| 2026-05-05 20:14 | 50.04644 | 8.59460 | 371 ft | 7 kts | 348° |
| 2026-05-05 20:14 | 50.04689 | 8.59443 | 371 ft | 7 kts | 346° |
| 2026-05-05 20:14 | 50.04732 | 8.59423 | 371 ft | 6 kts | 342° |
| 2026-05-05 20:15 | 50.04773 | 8.59399 | 371 ft | 6 kts | 340° |
| 2026-05-05 20:15 | 50.04815 | 8.59376 | 370 ft | 7 kts | 340° |
| 2026-05-05 20:15 | 50.04865 | 8.59358 | 370 ft | 8 kts | 359° |
| 2026-05-05 20:15 | 50.04916 | 8.59372 | 366 ft | 7 kts | 5° |
| 2026-05-05 20:16 | 50.04964 | 8.59356 | 367 ft | 7 kts | 340° |
| 2026-05-05 20:16 | 50.05010 | 8.59330 | 364 ft | 7 kts | 340° |
| 2026-05-05 20:16 | 50.05053 | 8.59302 | 363 ft | 7 kts | 332° |
| 2026-05-05 20:16 | 50.05078 | 8.59244 | 363 ft | 7 kts | 278° |
| 2026-05-05 20:17 | 50.05069 | 8.59169 | 361 ft | 7 kts | 250° |
| 2026-05-05 20:17 | 50.05053 | 8.59099 | 361 ft | 7 kts | 249° |
| 2026-05-05 20:17 | 50.05037 | 8.59031 | 360 ft | 7 kts | 249° |
| 2026-05-05 20:17 | 50.05021 | 8.58968 | 360 ft | 6 kts | 249° |
| 2026-05-05 20:18 | 50.05010 | 8.58922 | 363 ft | 4 kts | 249° |
| 2026-05-05 20:18 | 50.05009 | 8.58878 | 362 ft | 4 kts | 298° |
| 2026-05-05 20:18 | 50.05034 | 8.58854 | 358 ft | 4 kts | 337° |
| 2026-05-05 20:18 | 50.05060 | 8.58838 | 362 ft | 4 kts | 339° |
| 2026-05-05 20:19 | 50.05074 | 8.58829 | 359 ft | 0 kts | 339° |